Aérodrome :
LOGIN :

S'inscrire | Disclaimer

   EN    FR    IT 

 










Légende :    VFR   VFR Marginal   IFR   IFR Intensif   IFR Très Intensif
Visi : 
Plafond : 
>= 8 km
>= 3000ft
5 à 8 km
1000 à 3000 ft
1500m à 5 km
500 à 1000 ft
800 à 1500m
200 à 500 ft
< 800m
< 200 ft
Symboles :   Orages  Brouillard  Fortes neiges  Fortes précipitations  Vent > 20 kt
SIGMETs :   Divers  Orages  Givrage  Turbulence  Onde Orograph.  Cendres Volcan.







- Altitude de l'aérodrome : 87 ft
- Code IATA : FSC
- Voir les cartes d'approche


LFKF - Figari

DERNIER METAR :
  • 180230Z AUTO 24009KT 9999 FEW040 BKN049 10/07 Q1012 TEMPO 25015G30KT

METARs EXPIRÉS :
  • 180200Z AUTO 25010KT 9999 FEW046 10/07 Q1013
  • 180130Z AUTO 25010KT 9999 ///TCU 10/07 Q1013
  • 180100Z AUTO 25009KT 9999 FEW049 11/07 Q1013
  • 180030Z AUTO 25008KT 220V280 9999 FEW024 SCT043 BKN049 11/08 Q1013

TAF TAF LFKF
Valide du 18 à 03h jusqu'au 19 à 03h UTC


180200Z 1803/1903 24010KT 9999 SCT030
TEMPO 1803/1806 BKN030
TEMPO 1803/1818 25015G30KT
TEMPO 1818/1903 SHRA BKN030
Pas de NOTAMs connus pour ce terrain.
1 SIGMET publié pour la FIR Marseille (LFMM) :
 
Onde orographique forte
LFMM SIGMET 1 VALID 180000/180400 LFPW
LFMM MARSEILLE FIR/UIR SEV MTW FCST WI N4315 E00945 - N4115 E00945 - N4115 E00900 - N4300 E00845 - N4315 E00945 SFC/FL200 STNR INTSF=



MET'MAP, la Météo Aéronautique d'un coup d'oeil ! - Copyright ORBIFLY Décembre 2007 - Disclaimer

ORBIFLY MET'MAP TEAM :

Programmation & Développement : Alexandra Zaïnal
Conception & Développement : Baudouin d'Aumeries
Co-Programmation & Développement : Marc-Olivier Méhu
Soutien technique & logistique : Manuel Goepfert

Contact : metmap@orbifly.com




SOURCES & CREDITS :

   NOAA